Aviation Digital Data Service (ADDS)

Output produced by METARs form (1341 UTC 23 January 2019)
found at http://www.aviationweather.gov/metar/data/
 
Forecast for: LEVD (VALLADOLID(MIL/C, ES)
Text: TAF LEVD 231100Z 2312/2412 28015KT 9999 SCT030 TX11/2315Z TN03/2406Z
Forecast period: 1200 UTC 23 January 2019 to 1200 UTC 24 January 2019
Forecast type: FROM: standard forecast or significant change
Winds: from the W (280 degrees) at 17 MPH (15 knots; 7.7 m/s)
Visibility: 6 or more miles 10+ km)
Ceiling: at least 12,000 feet AGL
Clouds: scattered clouds at 3000 feet AGL
Weather: no significant weather forecast for this period
Text: TEMPO 2312/2318 29020G32KT
Forecast period: 1200 to 1800 UTC 23 January 2019
Forecast type: TEMPORARY: The following changes expected for less than half the time period
Winds: from the WNW (290 degrees) at 23 MPH (20 knots; 10.3 m/s)
gusting to 37 MPH (32 knots; 16.5 m/s)
Visibility: missing
Ceiling: unknown
Clouds: missing
Weather: no significant weather forecast for this period